Time;durP1;ratioP1;P1;durP2;ratioP2;P2;SDS_P1;SDS_P2;PMS_P1;PMS_P2;Temp;Humidity;BMP_temperature;BMP_pressure;BME280_temperature;BME280_humidity;BME280_pressure;Samples;Min_cycle;Max_cycle;Signal;HPM_P1;HPM_P2
2021/12/08 00:02:20;;;;;;;7.37;4.50;;;;;;;;;;5040257;28;20284;-71
2021/12/08 00:04:46;;;;;;;7.60;4.33;;;;;;;;;;5039587;28;20314;-73
2021/12/08 00:07:14;;;;;;;7.00;3.67;;;;;;;;;;5040065;28;20215;-73
2021/12/08 00:09:59;;;;;;;5.53;2.87;;;;;;;;;;5039514;28;20231;-73
2021/12/08 00:15:10;;;;;;;9.80;4.23;;;;;;;;;;5039080;28;20213;-74
2021/12/08 00:17:36;;;;;;;8.30;4.20;;;;;;;;;;5041093;28;20292;-74
2021/12/08 00:20:05;;;;;;;7.47;4.27;;;;;;;;;;5039791;28;20317;-73
2021/12/08 00:22:33;;;;;;;5.97;3.67;;;;;;;;;;5039509;28;20206;-74
2021/12/08 00:24:59;;;;;;;6.83;4.10;;;;;;;;;;5039698;28;20291;-74
2021/12/08 00:27:25;;;;;;;5.13;3.60;;;;;;;;;;5040768;28;20265;-74
2021/12/08 00:29:52;;;;;;;7.70;3.90;;;;;;;;;;5038571;28;20218;-74
2021/12/08 00:32:20;;;;;;;7.43;4.50;;;;;;;;;;5039800;28;20320;-74
2021/12/08 00:34:47;;;;;;;7.93;4.63;;;;;;;;;;5040902;28;20213;-74
2021/12/08 00:37:14;;;;;;;6.93;4.07;;;;;;;;;;5039218;28;20216;-74
2021/12/08 00:39:42;;;;;;;9.07;4.87;;;;;;;;;;5038741;28;20238;-72
2021/12/08 00:42:08;;;;;;;6.73;4.33;;;;;;;;;;5040884;28;20272;-72
2021/12/08 00:44:35;;;;;;;8.60;4.23;;;;;;;;;;5039211;28;20214;-72
2021/12/08 00:47:01;;;;;;;6.80;3.83;;;;;;;;;;5039281;28;20794;-72
2021/12/08 00:49:28;;;;;;;6.83;4.30;;;;;;;;;;5039493;28;20237;-72
2021/12/08 00:51:54;;;;;;;5.83;4.30;;;;;;;;;;5039746;28;20210;-72
2021/12/08 00:54:21;;;;;;;7.37;4.23;;;;;;;;;;5037805;28;20210;-72
2021/12/08 00:56:49;;;;;;;8.03;4.70;;;;;;;;;;5041160;28;20213;-72
2021/12/08 00:59:15;;;;;;;7.03;4.23;;;;;;;;;;5039454;28;20230;-72
2021/12/08 01:01:42;;;;;;;8.83;4.93;;;;;;;;;;5038342;28;20226;-72
2021/12/08 01:04:09;;;;;;;5.57;4.00;;;;;;;;;;5039843;28;20210;-72
2021/12/08 01:06:35;;;;;;;7.43;4.87;;;;;;;;;;5040132;28;20257;-72
2021/12/08 01:09:02;;;;;;;8.40;4.40;;;;;;;;;;5039007;28;20253;-72
2021/12/08 01:11:29;;;;;;;5.80;4.27;;;;;;;;;;5040051;28;20258;-72
2021/12/08 01:13:56;;;;;;;6.63;3.97;;;;;;;;;;5039580;28;20207;-72
2021/12/08 01:16:23;;;;;;;6.50;4.40;;;;;;;;;;5037143;28;20273;-72
2021/12/08 01:18:51;;;;;;;5.70;3.90;;;;;;;;;;5038818;28;20227;-72
2021/12/08 01:21:18;;;;;;;5.97;3.97;;;;;;;;;;5040835;28;20225;-72
2021/12/08 01:23:45;;;;;;;6.67;5.13;;;;;;;;;;5038803;28;20292;-72
2021/12/08 01:26:11;;;;;;;5.90;4.00;;;;;;;;;;5037586;28;20698;-72
2021/12/08 01:28:38;;;;;;;6.13;4.77;;;;;;;;;;5040469;28;20211;-72
2021/12/08 01:31:06;;;;;;;8.10;5.17;;;;;;;;;;5037367;28;20230;-72
2021/12/08 01:33:35;;;;;;;6.27;4.73;;;;;;;;;;5039148;28;20882;-72
2021/12/08 01:36:03;;;;;;;7.27;5.30;;;;;;;;;;5039583;28;20297;-72
2021/12/08 01:38:30;;;;;;;7.63;4.93;;;;;;;;;;5037319;28;20238;-71
2021/12/08 01:40:57;;;;;;;4.97;3.70;;;;;;;;;;5038311;28;20257;-72
2021/12/08 01:43:26;;;;;;;4.87;4.37;;;;;;;;;;5040811;28;20893;-72
2021/12/08 01:46:00;;;;;;;8.00;4.33;;;;;;;;;;5037734;28;20652;-73
2021/12/08 01:48:30;;;;;;;6.87;4.93;;;;;;;;;;5037235;28;20269;-71
2021/12/08 01:50:59;;;;;;;5.90;4.90;;;;;;;;;;5039379;28;20221;-71
2021/12/08 01:53:26;;;;;;;7.10;5.20;;;;;;;;;;5039174;28;20361;-71
2021/12/08 01:55:53;;;;;;;7.73;5.07;;;;;;;;;;5038054;28;20330;-73
2021/12/08 01:58:20;;;;;;;5.77;5.00;;;;;;;;;;5039818;28;20235;-71
2021/12/08 02:00:49;;;;;;;6.90;5.50;;;;;;;;;;5039140;28;20296;-71
2021/12/08 02:03:17;;;;;;;6.27;5.23;;;;;;;;;;5039203;28;20292;-71
2021/12/08 02:05:46;;;;;;;6.40;5.37;;;;;;;;;;5039345;28;20268;-71
2021/12/08 02:08:12;;;;;;;6.60;5.40;;;;;;;;;;5039729;28;20203;-71
2021/12/08 02:10:40;;;;;;;8.40;5.57;;;;;;;;;;5037869;28;20713;-71
2021/12/08 02:13:07;;;;;;;6.93;5.37;;;;;;;;;;5038952;28;20219;-72
2021/12/08 02:15:35;;;;;;;7.77;6.33;;;;;;;;;;5039635;28;20210;-71
2021/12/08 02:18:01;;;;;;;9.70;6.20;;;;;;;;;;5040650;28;20759;-71
2021/12/08 02:20:29;;;;;;;7.73;4.80;;;;;;;;;;5042115;28;20211;-71
2021/12/08 02:22:57;;;;;;;7.67;6.17;;;;;;;;;;5043649;28;20727;-74
2021/12/08 02:25:25;;;;;;;5.60;5.03;;;;;;;;;;5040018;28;20226;-71
2021/12/08 02:27:55;;;;;;;6.97;5.97;;;;;;;;;;5042579;28;20219;-71
2021/12/08 02:30:28;;;;;;;8.57;5.90;;;;;;;;;;5043225;28;20288;-72
2021/12/08 02:46:52;;;;;;;8.50;6.87;;;;;;;;;;5041171;28;20284;-71
2021/12/08 02:49:21;;;;;;;7.13;6.43;;;;;;;;;;5042275;28;20241;-72
2021/12/08 02:51:50;;;;;;;8.37;7.30;;;;;;;;;;5042778;28;20245;-71
2021/12/08 02:54:20;;;;;;;9.63;7.20;;;;;;;;;;5040944;28;20551;-71
2021/12/08 02:56:46;;;;;;;7.73;7.00;;;;;;;;;;5041930;28;20215;-71
2021/12/08 02:59:13;;;;;;;7.90;6.90;;;;;;;;;;5042574;28;20230;-71
2021/12/08 03:01:40;;;;;;;10.10;8.10;;;;;;;;;;5041029;28;20803;-72
2021/12/08 03:04:09;;;;;;;8.93;7.60;;;;;;;;;;5040398;28;20215;-71
2021/12/08 03:06:36;;;;;;;7.70;6.90;;;;;;;;;;5042339;28;20218;-71
2021/12/08 03:09:05;;;;;;;8.80;7.90;;;;;;;;;;5040976;28;20260;-72
2021/12/08 03:11:34;;;;;;;9.93;7.63;;;;;;;;;;5040776;28;20279;-71
2021/12/08 03:14:05;;;;;;;9.87;8.53;;;;;;;;;;5041762;28;20245;-72
2021/12/08 03:16:32;;;;;;;9.20;8.23;;;;;;;;;;5041877;28;20226;-71
2021/12/08 03:18:58;;;;;;;8.20;6.87;;;;;;;;;;5040316;28;20237;-71
2021/12/08 03:21:30;;;;;;;9.10;8.03;;;;;;;;;;5042043;28;20740;-71
2021/12/08 03:24:08;;;;;;;9.80;7.30;;;;;;;;;;5042252;28;20734;-71
2021/12/08 03:26:46;;;;;;;7.53;6.73;;;;;;;;;;5040033;28;20279;-71
2021/12/08 03:29:22;;;;;;;8.17;6.40;;;;;;;;;;5039602;28;20290;-71
2021/12/08 03:31:51;;;;;;;6.60;6.00;;;;;;;;;;5040984;28;20313;-71
2021/12/08 03:34:22;;;;;;;8.90;6.17;;;;;;;;;;5040452;28;20768;-71
2021/12/08 03:36:48;;;;;;;10.07;7.07;;;;;;;;;;5040346;28;20217;-71
2021/12/08 03:39:15;;;;;;;7.30;6.60;;;;;;;;;;5041441;28;20722;-72
2021/12/08 03:41:43;;;;;;;10.00;6.37;;;;;;;;;;5040869;28;20313;-71
2021/12/08 03:44:09;;;;;;;8.03;5.70;;;;;;;;;;5040057;28;20214;-71
2021/12/08 03:46:40;;;;;;;6.53;5.93;;;;;;;;;;5041307;28;20233;-71
2021/12/08 03:49:10;;;;;;;9.33;6.47;;;;;;;;;;5041884;28;20745;-72
2021/12/08 03:51:37;;;;;;;7.57;6.40;;;;;;;;;;5040617;28;20222;-71
2021/12/08 03:54:04;;;;;;;7.67;6.60;;;;;;;;;;5039303;28;20886;-72
2021/12/08 03:56:30;;;;;;;8.00;5.73;;;;;;;;;;5042459;28;20717;-72
2021/12/08 03:58:58;;;;;;;14.37;6.13;;;;;;;;;;5040448;28;20230;-72
2021/12/08 04:01:24;;;;;;;8.00;5.97;;;;;;;;;;5039302;28;20223;-72
2021/12/08 04:03:51;;;;;;;7.00;5.10;;;;;;;;;;5041567;28;20315;-71
2021/12/08 04:06:29;;;;;;;11.77;6.70;;;;;;;;;;5040216;28;20214;-71
2021/12/08 04:08:57;;;;;;;9.20;5.60;;;;;;;;;;5039183;28;20286;-71
2021/12/08 04:11:25;;;;;;;7.40;6.47;;;;;;;;;;5040056;28;20230;-71
2021/12/08 04:13:54;;;;;;;9.63;6.03;;;;;;;;;;5040578;28;20217;-71
2021/12/08 04:16:32;;;;;;;7.63;5.43;;;;;;;;;;5039105;28;20227;-72
2021/12/08 04:18:59;;;;;;;9.80;6.40;;;;;;;;;;5039643;28;20625;-71
2021/12/08 04:21:26;;;;;;;8.70;6.10;;;;;;;;;;5041008;28;20280;-71
2021/12/08 04:23:53;;;;;;;7.37;5.17;;;;;;;;;;5039900;28;20219;-71
2021/12/08 04:26:25;;;;;;;6.97;5.53;;;;;;;;;;5038593;28;20755;-72
2021/12/08 04:28:53;;;;;;;7.30;5.07;;;;;;;;;;5040425;28;20284;-71
2021/12/08 04:31:24;;;;;;;8.50;5.70;;;;;;;;;;5039368;28;20831;-71
2021/12/08 04:33:54;;;;;;;6.97;5.40;;;;;;;;;;5038976;28;20292;-71
2021/12/08 04:36:24;;;;;;;7.60;4.30;;;;;;;;;;5040517;28;20277;-71
2021/12/08 04:38:54;;;;;;;4.90;4.00;;;;;;;;;;5039620;28;20260;-71
2021/12/08 04:41:30;;;;;;;7.37;4.93;;;;;;;;;;5039159;28;21185;-71
2021/12/08 04:44:07;;;;;;;8.03;4.30;;;;;;;;;;5038939;28;20302;-71
2021/12/08 04:46:59;;;;;;;6.47;4.20;;;;;;;;;;5040756;28;20218;-71
2021/12/08 04:49:54;;;;;;;11.03;4.63;;;;;;;;;;5040380;28;20219;-71
2021/12/08 04:52:37;;;;;;;7.97;4.30;;;;;;;;;;5038522;28;20751;-71
2021/12/08 05:01:10;;;;;;;6.97;3.60;;;;;;;;;;5039674;28;20264;-71
2021/12/08 05:03:49;;;;;;;6.13;4.20;;;;;;;;;;5039379;28;20619;-71
2021/12/08 05:06:25;;;;;;;7.70;3.40;;;;;;;;;;5037643;28;20238;-71
2021/12/08 05:08:55;;;;;;;4.43;2.77;;;;;;;;;;5039049;28;20230;-71
2021/12/08 05:11:26;;;;;;;3.87;3.23;;;;;;;;;;5039487;28;20227;-71
2021/12/08 05:13:56;;;;;;;6.87;4.33;;;;;;;;;;5038191;28;20272;-71
2021/12/08 05:16:25;;;;;;;5.17;3.23;;;;;;;;;;5038094;28;20889;-71
2021/12/08 05:18:54;;;;;;;6.30;3.40;;;;;;;;;;5040180;28;20210;-71
2021/12/08 05:21:29;;;;;;;5.07;3.07;;;;;;;;;;5038352;28;20214;-71
2021/12/08 05:23:59;;;;;;;6.13;2.80;;;;;;;;;;5037739;28;20222;-71
2021/12/08 05:26:32;;;;;;;6.07;3.30;;;;;;;;;;5038314;28;20226;-71
2021/12/08 05:29:04;;;;;;;5.13;3.07;;;;;;;;;;5039528;28;20317;-71
2021/12/08 05:31:32;;;;;;;5.73;2.97;;;;;;;;;;5038183;28;20963;-74
2021/12/08 05:34:01;;;;;;;6.67;2.87;;;;;;;;;;5039539;28;20238;-74
2021/12/08 05:36:28;;;;;;;5.57;2.77;;;;;;;;;;5039169;28;20214;-75
2021/12/08 05:38:58;;;;;;;5.93;3.10;;;;;;;;;;5037603;28;20253;-75
2021/12/08 05:41:29;;;;;;;7.43;4.13;;;;;;;;;;5038119;28;20226;-75
2021/12/08 05:43:55;;;;;;;6.90;2.90;;;;;;;;;;5040017;28;20264;-75
2021/12/08 05:46:26;;;;;;;6.67;3.03;;;;;;;;;;5038759;28;20230;-74
2021/12/08 05:48:52;;;;;;;6.07;2.53;;;;;;;;;;5038880;28;20640;-75
2021/12/08 05:51:23;;;;;;;5.67;2.80;;;;;;;;;;5043515;28;20210;-75
2021/12/08 05:53:53;;;;;;;8.27;3.03;;;;;;;;;;5042526;28;20265;-74
2021/12/08 05:56:21;;;;;;;6.07;3.00;;;;;;;;;;5041433;28;20222;-75
2021/12/08 05:58:50;;;;;;;6.87;2.50;;;;;;;;;;5043981;28;20211;-74
2021/12/08 06:01:20;;;;;;;5.47;2.40;;;;;;;;;;5041583;28;20900;-75
2021/12/08 06:03:49;;;;;;;4.90;2.87;;;;;;;;;;5042091;28;20944;-75
2021/12/08 06:06:16;;;;;;;5.50;2.60;;;;;;;;;;5043705;28;20211;-75
2021/12/08 06:08:45;;;;;;;5.70;2.47;;;;;;;;;;5043748;28;20203;-75
2021/12/08 06:11:13;;;;;;;5.60;2.70;;;;;;;;;;5040688;28;20227;-75
2021/12/08 06:13:42;;;;;;;4.20;2.07;;;;;;;;;;5042875;28;20857;-75
2021/12/08 06:16:10;;;;;;;5.40;2.80;;;;;;;;;;5043771;28;20219;-75
2021/12/08 06:18:39;;;;;;;6.97;2.27;;;;;;;;;;5041587;28;20218;-75
2021/12/08 06:21:10;;;;;;;7.67;2.43;;;;;;;;;;5041556;28;20763;-75
2021/12/08 06:23:38;;;;;;;5.67;2.57;;;;;;;;;;5044193;28;20610;-75
2021/12/08 06:26:07;;;;;;;7.07;2.27;;;;;;;;;;5041904;28;20747;-75
2021/12/08 06:28:34;;;;;;;6.20;1.70;;;;;;;;;;5041641;28;20284;-75
2021/12/08 06:31:00;;;;;;;6.60;2.10;;;;;;;;;;5043395;28;20284;-75
2021/12/08 06:33:27;;;;;;;5.47;2.07;;;;;;;;;;5042371;28;20219;-75
2021/12/08 06:35:59;;;;;;;3.73;1.97;;;;;;;;;;5041895;28;20223;-75
2021/12/08 06:38:27;;;;;;;4.00;1.90;;;;;;;;;;5041772;28;20234;-75
2021/12/08 06:40:57;;;;;;;5.13;2.50;;;;;;;;;;5043526;28;20299;-75
2021/12/08 06:43:29;;;;;;;4.27;1.80;;;;;;;;;;5040705;28;20288;-77
2021/12/08 06:45:59;;;;;;;3.50;2.00;;;;;;;;;;5041093;28;20222;-76
2021/12/08 06:48:31;;;;;;;4.80;2.33;;;;;;;;;;5043118;28;21117;-76
2021/12/08 06:51:04;;;;;;;3.33;1.93;;;;;;;;;;5040940;28;20256;-76
2021/12/08 06:53:31;;;;;;;5.83;2.20;;;;;;;;;;5041181;28;20744;-76
2021/12/08 06:56:00;;;;;;;6.10;1.90;;;;;;;;;;5042878;28;20222;-76
2021/12/08 06:58:31;;;;;;;5.47;2.30;;;;;;;;;;5042057;28;20256;-76
2021/12/08 07:01:13;;;;;;;6.80;2.90;;;;;;;;;;5038613;28;20254;-76
2021/12/08 07:03:47;;;;;;;5.63;2.43;;;;;;;;;;5038692;28;20679;-76
2021/12/08 07:06:30;;;;;;;4.77;1.87;;;;;;;;;;5040053;28;20214;-76
2021/12/08 07:08:59;;;;;;;8.37;2.10;;;;;;;;;;5038191;28;20214;-76
2021/12/08 07:11:28;;;;;;;4.43;1.80;;;;;;;;;;5038887;28;20227;-76
2021/12/08 07:13:56;;;;;;;7.57;1.73;;;;;;;;;;5039288;28;20225;-76
2021/12/08 07:16:25;;;;;;;3.50;1.60;;;;;;;;;;5039063;28;20681;-76
2021/12/08 07:19:02;;;;;;;5.30;2.00;;;;;;;;;;5040169;28;20823;-76
2021/12/08 07:21:35;;;;;;;2.73;1.40;;;;;;;;;;5038431;28;21049;-76
2021/12/08 07:24:05;;;;;;;7.47;1.80;;;;;;;;;;5039337;28;20629;-77
2021/12/08 07:26:36;;;;;;;5.50;1.40;;;;;;;;;;5038441;28;20262;-76
2021/12/08 07:29:06;;;;;;;3.77;1.63;;;;;;;;;;5037384;28;20203;-76
2021/12/08 07:31:34;;;;;;;5.27;2.60;;;;;;;;;;5039302;28;20681;-76
2021/12/08 07:34:06;;;;;;;6.93;1.77;;;;;;;;;;5037941;28;20206;-76
2021/12/08 07:36:35;;;;;;;4.30;1.43;;;;;;;;;;5039121;28;20298;-77
2021/12/08 07:39:06;;;;;;;5.57;1.90;;;;;;;;;;5038907;28;20339;-77
2021/12/08 07:41:35;;;;;;;6.50;1.93;;;;;;;;;;5037372;28;20575;-76
2021/12/08 07:44:07;;;;;;;4.37;1.77;;;;;;;;;;5040151;28;20882;-77
2021/12/08 07:46:37;;;;;;;5.60;1.80;;;;;;;;;;5039534;28;20222;-77
2021/12/08 07:49:09;;;;;;;2.73;1.07;;;;;;;;;;5039342;28;20237;-77
2021/12/08 07:51:40;;;;;;;8.57;2.13;;;;;;;;;;5040086;28;20203;-77
2021/12/08 07:54:08;;;;;;;7.57;1.80;;;;;;;;;;5037985;28;20210;-77
2021/12/08 07:56:36;;;;;;;4.93;1.63;;;;;;;;;;5040582;28;20234;-77
2021/12/08 07:59:08;;;;;;;2.13;0.93;;;;;;;;;;5038293;28;20875;-77
2021/12/08 08:01:38;;;;;;;4.70;1.43;;;;;;;;;;5038644;28;20240;-77
2021/12/08 08:04:09;;;;;;;5.33;1.47;;;;;;;;;;5039667;28;20644;-77
2021/12/08 08:06:47;;;;;;;5.80;1.80;;;;;;;;;;5040331;28;20302;-78
2021/12/08 08:09:20;;;;;;;4.57;1.50;;;;;;;;;;5044251;28;20210;-78
2021/12/08 08:11:55;;;;;;;5.97;1.70;;;;;;;;;;5043516;28;20577;-79
2021/12/08 08:14:24;;;;;;;5.37;1.70;;;;;;;;;;5042861;28;20218;-79
2021/12/08 08:16:55;;;;;;;7.83;1.50;;;;;;;;;;5044217;28;20701;-79
2021/12/08 08:19:26;;;;;;;6.80;2.20;;;;;;;;;;5041746;28;20309;-79
2021/12/08 08:21:56;;;;;;;9.03;2.87;;;;;;;;;;5044609;28;20230;-79
2021/12/08 08:24:23;;;;;;;6.67;1.77;;;;;;;;;;5042390;28;20237;-79
2021/12/08 08:26:53;;;;;;;4.43;1.57;;;;;;;;;;5044404;28;20226;-79
2021/12/08 08:29:20;;;;;;;9.13;2.17;;;;;;;;;;5043929;28;20699;-79
2021/12/08 08:31:56;;;;;;;4.17;1.83;;;;;;;;;;5040122;28;20280;-79
2021/12/08 08:34:23;;;;;;;10.57;2.20;;;;;;;;;;5043129;28;20218;-79
2021/12/08 08:36:50;;;;;;;8.23;2.10;;;;;;;;;;5041297;28;20238;-79
2021/12/08 08:39:21;;;;;;;7.63;2.57;;;;;;;;;;5041745;28;20234;-79
2021/12/08 08:41:50;;;;;;;7.60;1.67;;;;;;;;;;5043999;28;20215;-80
2021/12/08 08:44:21;;;;;;;8.43;1.90;;;;;;;;;;5038972;28;20671;-79
2021/12/08 08:46:49;;;;;;;6.10;1.47;;;;;;;;;;5044001;28;20717;-79
2021/12/08 08:49:20;;;;;;;4.90;1.60;;;;;;;;;;5040482;28;20230;-79
2021/12/08 08:51:50;;;;;;;6.13;1.80;;;;;;;;;;5041205;28;20218;-79
2021/12/08 08:54:20;;;;;;;3.23;1.60;;;;;;;;;;5042336;28;20207;-79
2021/12/08 08:56:55;;;;;;;6.33;2.10;;;;;;;;;;5041156;28;20237;-78
2021/12/08 08:59:26;;;;;;;3.47;1.73;;;;;;;;;;5044145;28;20220;-79
2021/12/08 09:01:56;;;;;;;7.07;2.37;;;;;;;;;;5042434;28;20325;-78
2021/12/08 09:04:26;;;;;;;7.13;2.27;;;;;;;;;;5043307;28;20223;-79
2021/12/08 09:06:56;;;;;;;6.50;2.00;;;;;;;;;;5042563;28;20324;-79
2021/12/08 09:09:28;;;;;;;2.27;1.27;;;;;;;;;;5040361;28;20232;-79
2021/12/08 09:12:05;;;;;;;5.67;1.90;;;;;;;;;;5040852;28;20366;-79
2021/12/08 09:14:36;;;;;;;6.73;1.90;;;;;;;;;;5039170;28;20194;-77
2021/12/08 09:17:09;;;;;;;5.43;1.93;;;;;;;;;;5041480;28;20230;-79
2021/12/08 09:19:42;;;;;;;9.50;2.03;;;;;;;;;;5041139;28;20199;-79
2021/12/08 09:22:15;;;;;;;6.10;1.83;;;;;;;;;;5037752;28;20230;-77
2021/12/08 09:24:47;;;;;;;5.87;1.60;;;;;;;;;;5039466;28;20234;-79
2021/12/08 09:27:17;;;;;;;7.07;2.27;;;;;;;;;;5041818;28;20219;-77
2021/12/08 09:29:48;;;;;;;5.37;1.63;;;;;;;;;;5046046;28;20676;-79
2021/12/08 09:32:22;;;;;;;4.43;1.60;;;;;;;;;;5044215;28;20279;-78
2021/12/08 09:34:55;;;;;;;6.77;2.10;;;;;;;;;;5043740;28;20214;-78
2021/12/08 09:37:24;;;;;;;4.73;1.60;;;;;;;;;;5044683;28;20289;-79
2021/12/08 09:39:55;;;;;;;4.03;1.67;;;;;;;;;;5043065;28;20234;-79
2021/12/08 09:42:27;;;;;;;7.60;2.23;;;;;;;;;;5041266;28;20323;-77
2021/12/08 09:44:56;;;;;;;8.70;2.27;;;;;;;;;;5040750;28;20268;-77
2021/12/08 09:47:29;;;;;;;8.87;1.73;;;;;;;;;;5039644;28;20226;-77
2021/12/08 09:49:56;;;;;;;2.97;1.10;;;;;;;;;;5042190;28;20735;-77
2021/12/08 09:52:27;;;;;;;6.73;1.10;;;;;;;;;;5040617;28;20295;-77
2021/12/08 09:54:54;;;;;;;2.83;1.30;;;;;;;;;;5040783;28;20701;-77
2021/12/08 09:57:20;;;;;;;5.47;1.63;;;;;;;;;;5041484;28;20214;-77
2021/12/08 09:59:47;;;;;;;4.43;1.10;;;;;;;;;;5040325;28;20830;-77
2021/12/08 10:02:18;;;;;;;4.43;1.60;;;;;;;;;;5040898;28;20230;-77
2021/12/08 10:04:46;;;;;;;4.17;1.33;;;;;;;;;;5038462;28;20807;-76
2021/12/08 10:07:13;;;;;;;4.83;1.30;;;;;;;;;;5041070;28;20211;-77
2021/12/08 10:09:41;;;;;;;4.93;1.43;;;;;;;;;;5040355;28;20230;-77
2021/12/08 10:12:08;;;;;;;4.50;0.90;;;;;;;;;;5039629;28;20262;-77
2021/12/08 10:14:35;;;;;;;10.70;1.87;;;;;;;;;;5039618;28;20221;-76
2021/12/08 10:17:01;;;;;;;7.13;1.43;;;;;;;;;;5038233;28;20271;-76
2021/12/08 10:19:28;;;;;;;4.03;1.33;;;;;;;;;;5041550;28;20218;-76
2021/12/08 10:21:56;;;;;;;7.03;1.73;;;;;;;;;;5037637;28;20230;-76
2021/12/08 10:24:25;;;;;;;4.40;1.63;;;;;;;;;;5038244;28;20211;-76
2021/12/08 10:27:00;;;;;;;5.50;1.60;;;;;;;;;;5040240;28;20222;-76
2021/12/08 10:29:29;;;;;;;6.67;1.83;;;;;;;;;;5039140;28;20210;-76
2021/12/08 10:31:59;;;;;;;4.47;1.37;;;;;;;;;;5040684;28;20292;-76
2021/12/08 10:34:34;;;;;;;4.83;2.67;;;;;;;;;;5038566;28;20585;-78
2021/12/08 10:37:07;;;;;;;4.30;1.63;;;;;;;;;;5038898;28;20210;-76
2021/12/08 10:39:36;;;;;;;4.60;1.50;;;;;;;;;;5038480;28;20654;-76
2021/12/08 10:42:14;;;;;;;10.73;1.63;;;;;;;;;;5039361;28;20652;-76
2021/12/08 10:44:47;;;;;;;3.97;1.10;;;;;;;;;;5039905;28;20225;-75
2021/12/08 10:47:18;;;;;;;7.87;1.90;;;;;;;;;;5039199;28;20784;-75
2021/12/08 10:55:24;;;;;;;8.93;2.00;;;;;;;;;;5041099;28;20364;-77
2021/12/08 10:57:54;;;;;;;4.37;1.80;;;;;;;;;;5037793;28;20267;-77
2021/12/08 11:00:24;;;;;;;4.17;1.63;;;;;;;;;;5039004;28;20214;-77
2021/12/08 11:02:54;;;;;;;4.27;0.93;;;;;;;;;;5038919;28;20846;-77
2021/12/08 11:05:43;;;;;;;3.87;1.60;;;;;;;;;;5039463;28;20896;-78
2021/12/08 11:08:16;;;;;;;3.87;1.37;;;;;;;;;;5046704;28;20183;-78
2021/12/08 11:10:46;;;;;;;4.07;1.50;;;;;;;;;;5037151;28;20234;-75
2021/12/08 11:13:14;;;;;;;11.97;1.87;;;;;;;;;;5040316;28;20207;-75
2021/12/08 11:15:42;;;;;;;7.33;1.77;;;;;;;;;;5038964;28;20235;-75
2021/12/08 11:18:11;;;;;;;3.07;1.37;;;;;;;;;;5040970;28;20757;-75
2021/12/08 11:20:44;;;;;;;7.93;1.70;;;;;;;;;;5037682;28;20266;-75
2021/12/08 11:23:16;;;;;;;7.20;2.30;;;;;;;;;;5040194;28;20214;-75
2021/12/08 11:25:45;;;;;;;5.10;1.87;;;;;;;;;;5038880;28;20283;-75
2021/12/08 11:28:19;;;;;;;4.00;1.40;;;;;;;;;;5039352;28;20306;-75
2021/12/08 11:30:46;;;;;;;5.10;1.47;;;;;;;;;;5038949;28;20226;-75
2021/12/08 11:33:15;;;;;;;5.90;1.80;;;;;;;;;;5038095;28;20257;-75
2021/12/08 11:35:42;;;;;;;5.27;2.37;;;;;;;;;;5039491;28;20752;-75
2021/12/08 11:38:09;;;;;;;4.60;1.97;;;;;;;;;;5037847;28;20312;-77
2021/12/08 11:40:38;;;;;;;4.57;2.27;;;;;;;;;;5040635;28;21044;-75
2021/12/08 11:43:04;;;;;;;4.13;1.80;;;;;;;;;;5037138;28;20280;-75
2021/12/08 11:45:39;;;;;;;5.27;1.80;;;;;;;;;;5041015;28;20221;-75
2021/12/08 11:48:21;;;;;;;5.50;2.20;;;;;;;;;;5038390;28;20779;-75
2021/12/08 11:50:47;;;;;;;6.70;2.47;;;;;;;;;;5038715;28;20218;-75
2021/12/08 11:53:21;;;;;;;9.30;4.77;;;;;;;;;;5037736;28;21063;-75
2021/12/08 11:55:49;;;;;;;7.13;2.83;;;;;;;;;;5037683;28;20231;-75
2021/12/08 11:58:15;;;;;;;3.37;1.90;;;;;;;;;;5039260;28;20215;-75
2021/12/08 12:00:47;;;;;;;4.10;1.83;;;;;;;;;;5039228;28;20412;-75
2021/12/08 12:03:15;;;;;;;6.77;2.10;;;;;;;;;;5039251;28;20230;-75
2021/12/08 12:05:44;;;;;;;5.30;2.00;;;;;;;;;;5037369;28;20214;-75
2021/12/08 12:08:13;;;;;;;5.67;1.90;;;;;;;;;;5038942;28;20501;-75
2021/12/08 12:10:42;;;;;;;4.87;2.43;;;;;;;;;;5036922;28;20228;-76
2021/12/08 12:13:10;;;;;;;2.70;1.87;;;;;;;;;;5038933;28;20226;-75
2021/12/08 12:15:40;;;;;;;3.47;2.00;;;;;;;;;;5037723;28;20209;-77
2021/12/08 12:18:06;;;;;;;4.67;1.67;;;;;;;;;;5037843;28;20214;-75
2021/12/08 12:20:44;;;;;;;1.87;1.23;;;;;;;;;;5038319;28;20211;-75
2021/12/08 12:23:26;;;;;;;3.43;1.57;;;;;;;;;;5037477;28;21236;-76
2021/12/08 12:26:10;;;;;;;1.50;1.20;;;;;;;;;;5037739;28;20234;-76
2021/12/08 12:29:09;;;;;;;3.03;1.17;;;;;;;;;;5036522;28;20781;-75
2021/12/08 12:31:46;;;;;;;3.53;1.70;;;;;;;;;;5034064;28;20222;-76
2021/12/08 12:34:27;;;;;;;3.40;1.80;;;;;;;;;;5036453;28;20210;-75
2021/12/08 12:36:54;;;;;;;5.47;2.53;;;;;;;;;;5037854;28;20275;-75
2021/12/08 12:39:23;;;;;;;2.07;1.47;;;;;;;;;;5037714;28;20235;-76
2021/12/08 12:41:59;;;;;;;3.70;2.00;;;;;;;;;;5038170;28;20570;-75
2021/12/08 12:44:28;;;;;;;6.27;2.00;;;;;;;;;;5036526;28;20209;-75
2021/12/08 12:47:27;;;;;;;5.70;2.47;;;;;;;;;;5037101;28;20900;-75
2021/12/08 12:50:12;;;;;;;4.87;1.70;;;;;;;;;;5039377;28;20237;-76
2021/12/08 12:52:41;;;;;;;5.03;1.30;;;;;;;;;;5035320;28;20216;-75
2021/12/08 12:55:09;;;;;;;4.63;1.50;;;;;;;;;;5038464;28;20235;-76
2021/12/08 12:58:10;;;;;;;2.00;1.00;;;;;;;;;;5038076;28;20211;-76
2021/12/08 13:00:40;;;;;;;3.20;1.50;;;;;;;;;;5037027;28;20218;-76
2021/12/08 13:03:08;;;;;;;4.83;1.53;;;;;;;;;;5038075;28;20237;-76
2021/12/08 13:05:50;;;;;;;4.57;1.70;;;;;;;;;;5037386;28;20206;-76
2021/12/08 13:08:30;;;;;;;4.00;1.70;;;;;;;;;;5038372;28;20211;-76
2021/12/08 13:10:59;;;;;;;4.03;1.40;;;;;;;;;;5036311;28;20320;-77
2021/12/08 13:13:25;;;;;;;2.90;1.33;;;;;;;;;;5038428;28;20573;-77
2021/12/08 13:15:52;;;;;;;3.97;1.90;;;;;;;;;;5038029;28;20230;-76
2021/12/08 13:18:23;;;;;;;3.30;1.70;;;;;;;;;;5037394;28;20221;-77
2021/12/08 13:20:55;;;;;;;4.37;1.90;;;;;;;;;;5038073;28;20214;-77
2021/12/08 13:23:25;;;;;;;3.40;1.50;;;;;;;;;;5037834;28;20229;-77
2021/12/08 13:25:59;;;;;;;1.93;1.50;;;;;;;;;;5037682;28;20234;-77
2021/12/08 13:28:44;;;;;;;3.73;1.90;;;;;;;;;;5035857;28;20219;-77
2021/12/08 13:31:18;;;;;;;2.33;1.67;;;;;;;;;;5037382;28;20333;-76
2021/12/08 13:33:55;;;;;;;5.03;1.90;;;;;;;;;;5037242;28;21173;-77
2021/12/08 13:36:34;;;;;;;3.00;1.50;;;;;;;;;;5037736;28;20210;-75
2021/12/08 13:39:13;;;;;;;2.53;1.57;;;;;;;;;;5036861;28;20238;-75
2021/12/08 13:41:42;;;;;;;2.70;1.40;;;;;;;;;;5035761;28;20233;-76
2021/12/08 13:44:23;;;;;;;1.73;1.33;;;;;;;;;;5038831;28;20219;-76
2021/12/08 13:46:52;;;;;;;4.73;1.90;;;;;;;;;;5035893;28;21163;-76
2021/12/08 13:49:24;;;;;;;4.77;2.20;;;;;;;;;;5037783;28;20227;-76
2021/12/08 13:52:14;;;;;;;5.20;2.13;;;;;;;;;;5037198;28;20864;-75
2021/12/08 13:54:42;;;;;;;3.20;1.80;;;;;;;;;;5037894;28;20218;-76
2021/12/08 13:57:28;;;;;;;2.83;2.20;;;;;;;;;;5036969;28;20690;-76
2021/12/08 13:59:56;;;;;;;3.37;2.40;;;;;;;;;;5036218;28;20272;-76
2021/12/08 14:02:26;;;;;;;3.83;2.57;;;;;;;;;;5037259;28;20238;-76
2021/12/08 14:05:07;;;;;;;3.13;2.07;;;;;;;;;;5035335;28;20207;-76
2021/12/08 14:07:35;;;;;;;5.10;2.73;;;;;;;;;;5039039;28;20215;-76
2021/12/08 14:10:06;;;;;;;3.43;2.40;;;;;;;;;;5035872;28;20824;-76
2021/12/08 14:12:44;;;;;;;2.40;2.10;;;;;;;;;;5041165;28;20600;-76
2021/12/08 14:15:15;;;;;;;3.83;2.53;;;;;;;;;;5039812;28;20206;-75
2021/12/08 14:17:42;;;;;;;3.47;2.27;;;;;;;;;;5040852;28;20234;-76
2021/12/08 14:20:32;;;;;;;5.33;2.47;;;;;;;;;;5040308;28;20299;-76
2021/12/08 14:23:02;;;;;;;5.70;2.60;;;;;;;;;;5039376;28;20231;-75
2021/12/08 14:25:47;;;;;;;4.33;2.10;;;;;;;;;;5041704;28;20234;-75
2021/12/08 14:28:38;;;;;;;4.60;2.20;;;;;;;;;;5039385;28;20345;-75
2021/12/08 14:31:07;;;;;;;6.20;2.43;;;;;;;;;;5041314;28;20277;-75
2021/12/08 14:33:33;;;;;;;5.87;2.13;;;;;;;;;;5040288;28;20199;-75
2021/12/08 14:36:05;;;;;;;7.07;2.23;;;;;;;;;;5040239;28;20292;-76
2021/12/08 14:38:33;;;;;;;6.93;2.70;;;;;;;;;;5041220;28;20238;-76
2021/12/08 14:41:00;;;;;;;7.40;2.33;;;;;;;;;;5039149;28;20325;-75
2021/12/08 14:43:33;;;;;;;4.00;2.37;;;;;;;;;;5040808;28;20320;-76
2021/12/08 14:46:10;;;;;;;4.63;2.23;;;;;;;;;;5039475;28;20230;-76
2021/12/08 14:48:38;;;;;;;6.10;2.50;;;;;;;;;;5041498;28;20230;-76
2021/12/08 14:51:10;;;;;;;6.83;2.40;;;;;;;;;;5039004;28;20222;-76
2021/12/08 14:53:36;;;;;;;6.50;2.50;;;;;;;;;;5041752;28;20206;-76
2021/12/08 14:56:10;;;;;;;3.77;2.10;;;;;;;;;;5038992;28;20635;-75
2021/12/08 14:58:36;;;;;;;2.97;1.90;;;;;;;;;;5040722;28;20856;-75
2021/12/08 15:01:03;;;;;;;5.37;2.33;;;;;;;;;;5038808;28;20222;-76
2021/12/08 15:03:38;;;;;;;6.13;2.73;;;;;;;;;;5039172;28;20222;-75
2021/12/08 15:06:06;;;;;;;3.20;2.10;;;;;;;;;;5039674;28;20236;-75
2021/12/08 15:08:38;;;;;;;4.23;1.77;;;;;;;;;;5039245;28;20210;-76
2021/12/08 15:11:05;;;;;;;7.93;2.50;;;;;;;;;;5041126;28;20222;-75
2021/12/08 15:13:33;;;;;;;6.80;2.87;;;;;;;;;;5038250;28;20642;-75
2021/12/08 15:15:59;;;;;;;5.63;2.30;;;;;;;;;;5041379;28;20226;-75
2021/12/08 15:18:28;;;;;;;6.50;2.63;;;;;;;;;;5036951;28;20930;-75
2021/12/08 15:21:00;;;;;;;5.37;2.10;;;;;;;;;;5040747;28;20268;-76
2021/12/08 15:23:39;;;;;;;4.70;1.90;;;;;;;;;;5038064;28;20223;-75
2021/12/08 15:26:08;;;;;;;3.10;2.17;;;;;;;;;;5038463;28;20238;-75
2021/12/08 15:28:36;;;;;;;4.20;1.77;;;;;;;;;;5039044;28;20221;-75
2021/12/08 15:31:04;;;;;;;4.10;2.50;;;;;;;;;;5038915;28;20811;-75
2021/12/08 15:33:32;;;;;;;3.90;2.10;;;;;;;;;;5040204;28;20272;-75